createdAt,value
2023-03-18T00:01:27.292Z,10.34
2023-03-18T00:03:54.349Z,10.25
2023-03-18T00:06:22.381Z,10.21
2023-03-18T00:08:50.906Z,10.19
2023-03-18T00:11:20.173Z,10.16
2023-03-18T00:13:48.202Z,10.10
2023-03-18T00:16:16.018Z,10.17
2023-03-18T00:18:43.496Z,10.08
2023-03-18T00:21:11.271Z,10.15
2023-03-18T00:23:38.881Z,10.14
2023-03-18T00:26:06.008Z,10.21
2023-03-18T00:28:33.037Z,10.18
2023-03-18T00:31:08.857Z,10.09
2023-03-18T00:33:38.260Z,10.07
2023-03-18T00:36:06.784Z,10.10
2023-03-18T00:38:33.875Z,10.02
2023-03-18T00:41:15.995Z,10.16
2023-03-18T00:43:52.926Z,10.20
2023-03-18T00:46:26.898Z,10.37
2023-03-18T00:48:56.458Z,10.43
2023-03-18T00:51:26.119Z,10.51
2023-03-18T00:53:55.804Z,10.55
2023-03-18T00:56:25.817Z,10.55
2023-03-18T00:58:54.046Z,10.49
2023-03-18T01:01:22.566Z,10.45
2023-03-18T01:03:50.472Z,10.41
2023-03-18T01:06:22.764Z,10.50
2023-03-18T01:08:50.476Z,10.48
2023-03-18T01:11:18.247Z,10.46
2023-03-18T01:13:46.402Z,10.49
2023-03-18T01:16:14.504Z,10.49
2023-03-18T01:18:41.951Z,10.44
2023-03-18T01:21:10.466Z,10.48
2023-03-18T01:23:38.492Z,10.41
2023-03-18T01:26:06.766Z,10.47
2023-03-18T01:28:34.355Z,10.14
2023-03-18T01:31:01.698Z,10.42
2023-03-18T01:33:30.161Z,10.52
2023-03-18T01:36:00.082Z,10.50
2023-03-18T01:38:30.558Z,10.50
2023-03-18T01:40:59.127Z,10.51
2023-03-18T01:43:30.763Z,10.51
2023-03-18T01:46:00.871Z,10.57
2023-03-18T01:48:34.100Z,10.63
2023-03-18T01:51:06.112Z,10.49
2023-03-18T01:53:39.306Z,10.33
2023-03-18T01:56:07.987Z,10.59
2023-03-18T01:58:45.548Z,10.52
2023-03-18T02:01:20.409Z,10.45
2023-03-18T02:03:48.511Z,10.44
2023-03-18T02:06:15.464Z,10.33
2023-03-18T02:08:42.276Z,10.28
2023-03-18T02:11:10.660Z,10.28
2023-03-18T02:13:41.753Z,10.14
2023-03-18T02:16:34.323Z,9.84
2023-03-18T02:19:31.568Z,9.60
2023-03-18T02:22:10.145Z,9.55
2023-03-18T02:25:04.148Z,9.42
2023-03-18T02:27:35.641Z,9.31
2023-03-18T02:30:21.198Z,9.40
2023-03-18T02:32:51.343Z,9.42
2023-03-18T02:35:18.105Z,9.32
2023-03-18T02:37:45.141Z,9.23
2023-03-18T02:40:19.189Z,9.37
2023-03-18T02:42:47.107Z,9.38
2023-03-18T02:45:30.963Z,9.24
2023-03-18T02:48:00.131Z,9.20
2023-03-18T02:50:27.092Z,9.19
2023-03-18T02:52:54.154Z,9.14
2023-03-18T02:55:21.308Z,9.18
2023-03-18T02:57:48.412Z,8.78
2023-03-18T03:00:16.612Z,9.02
2023-03-18T03:02:43.829Z,8.92
2023-03-18T03:05:11.296Z,8.91
2023-03-18T03:07:38.241Z,8.78
2023-03-18T03:10:07.000Z,8.82
2023-03-18T03:12:34.807Z,8.82
2023-03-18T03:15:01.705Z,8.80
2023-03-18T03:17:31.368Z,8.82
2023-03-18T03:19:58.333Z,8.80
2023-03-18T03:22:25.431Z,8.77
2023-03-18T03:24:52.651Z,8.76
2023-03-18T03:27:19.926Z,8.77
2023-03-18T03:29:46.840Z,8.79
2023-03-18T03:32:14.133Z,8.85
2023-03-18T03:34:41.750Z,8.87
2023-03-18T03:37:09.221Z,8.88
2023-03-18T03:39:36.173Z,8.93
2023-03-18T03:42:03.068Z,8.98
2023-03-18T03:44:30.663Z,8.97
2023-03-18T03:46:57.996Z,8.88
2023-03-18T03:49:25.351Z,8.86
2023-03-18T03:51:52.484Z,8.85
2023-03-18T03:54:20.170Z,8.87
2023-03-18T03:56:48.141Z,8.89
2023-03-18T03:59:15.133Z,9.06
2023-03-18T04:01:42.114Z,8.78
2023-03-18T04:04:08.967Z,8.94
2023-03-18T04:06:35.988Z,8.96
2023-03-18T04:09:04.577Z,8.88
2023-03-18T04:11:31.597Z,8.88
2023-03-18T04:13:58.493Z,8.88
2023-03-18T04:16:25.363Z,8.87
2023-03-18T04:18:52.227Z,8.85
2023-03-18T04:21:19.190Z,8.86
2023-03-18T04:23:46.705Z,8.91
2023-03-18T04:26:13.612Z,8.82
2023-03-18T04:28:40.825Z,8.78
2023-03-18T04:31:08.010Z,8.85
2023-03-18T04:33:35.035Z,8.94
2023-03-18T04:36:01.940Z,8.92
2023-03-18T04:38:29.051Z,8.92
2023-03-18T04:40:58.440Z,8.95
2023-03-18T04:43:25.410Z,8.93
2023-03-18T04:45:53.237Z,8.90
2023-03-18T04:48:20.114Z,8.98
2023-03-18T04:50:47.076Z,8.86
2023-03-18T04:53:13.920Z,8.95
2023-03-18T04:55:41.108Z,8.99
2023-03-18T04:58:07.959Z,9.00
2023-03-18T05:00:35.340Z,9.04
2023-03-18T05:03:03.376Z,9.04
2023-03-18T05:05:31.208Z,9.10
2023-03-18T05:07:58.701Z,9.18
2023-03-18T05:10:25.801Z,9.19
2023-03-18T05:12:52.790Z,9.24
2023-03-18T05:15:19.894Z,9.25
2023-03-18T05:17:47.672Z,9.27
2023-03-18T05:20:14.866Z,9.20
2023-03-18T05:22:42.385Z,9.29
2023-03-18T05:25:11.643Z,9.33
2023-03-18T05:27:39.150Z,9.39
2023-03-18T05:30:07.439Z,9.36
2023-03-18T05:32:34.388Z,9.36
2023-03-18T05:35:01.467Z,9.38
2023-03-18T05:37:28.479Z,9.44
2023-03-18T05:39:55.621Z,9.58
2023-03-18T05:42:22.638Z,9.48
2023-03-18T05:44:50.103Z,9.47
2023-03-18T05:47:17.038Z,9.39
2023-03-18T05:49:43.968Z,9.42
2023-03-18T05:52:11.113Z,9.55
2023-03-18T05:54:38.393Z,9.46
2023-03-18T05:57:05.333Z,9.61
2023-03-18T05:59:32.230Z,9.51
2023-03-18T06:01:59.358Z,9.40
2023-03-18T06:04:27.364Z,9.42
2023-03-18T06:06:55.408Z,9.49
2023-03-18T06:09:22.695Z,9.56
2023-03-18T06:11:49.577Z,9.56
2023-03-18T06:14:16.701Z,9.60
2023-03-18T06:16:45.021Z,9.57
2023-03-18T06:19:12.178Z,9.64
2023-03-18T06:21:39.936Z,9.72
2023-03-18T06:24:08.437Z,9.70
2023-03-18T06:26:35.773Z,9.48
2023-03-18T06:29:04.233Z,9.82
2023-03-18T06:31:31.610Z,9.92
2023-03-18T06:34:00.877Z,10.03
2023-03-18T06:36:28.447Z,10.29
2023-03-18T06:38:56.251Z,10.15
2023-03-18T06:41:23.113Z,10.19
2023-03-18T06:43:50.837Z,10.24
2023-03-18T06:46:18.662Z,10.38
2023-03-18T06:48:45.818Z,10.57
2023-03-18T06:51:12.884Z,10.69
2023-03-18T06:53:40.345Z,10.74
2023-03-18T06:56:08.128Z,11.00
2023-03-18T06:58:35.038Z,10.88
2023-03-18T07:01:03.257Z,10.93
2023-03-18T07:03:30.235Z,10.71
2023-03-18T07:05:57.553Z,10.84
2023-03-18T07:08:24.433Z,10.87
2023-03-18T07:10:57.369Z,10.85
2023-03-18T07:13:24.892Z,10.94
2023-03-18T07:15:51.856Z,11.08
2023-03-18T07:18:18.880Z,10.99
2023-03-18T07:20:46.190Z,11.25
2023-03-18T07:23:13.434Z,11.44
2023-03-18T07:25:40.365Z,11.71
2023-03-18T07:28:07.482Z,12.14
2023-03-18T07:30:35.216Z,12.36
2023-03-18T07:33:02.549Z,12.61
2023-03-18T07:35:29.776Z,12.79
2023-03-18T07:37:57.734Z,13.34
2023-03-18T07:40:24.930Z,13.52
2023-03-18T07:42:51.919Z,13.53
2023-03-18T07:45:18.787Z,13.49
2023-03-18T07:47:47.174Z,13.41
2023-03-18T07:50:14.533Z,13.41
2023-03-18T07:52:42.199Z,13.54
2023-03-18T07:55:11.742Z,13.48
2023-03-18T07:57:39.672Z,13.53
2023-03-18T08:00:13.614Z,13.66
2023-03-18T08:02:40.689Z,13.72
2023-03-18T08:05:08.326Z,13.55
2023-03-18T08:07:36.421Z,13.69
2023-03-18T08:10:04.153Z,13.17
2023-03-18T08:12:49.022Z,12.93
2023-03-18T08:15:19.067Z,12.77
2023-03-18T08:17:46.086Z,13.09
2023-03-18T08:20:13.667Z,12.73
2023-03-18T08:22:40.475Z,12.91
2023-03-18T08:25:07.945Z,12.99
2023-03-18T08:27:35.489Z,12.83
2023-03-18T08:30:03.760Z,12.76
2023-03-18T08:32:31.119Z,12.72
2023-03-18T08:34:58.197Z,12.80
2023-03-18T08:37:25.206Z,12.66
2023-03-18T08:39:52.065Z,12.62
2023-03-18T08:42:19.486Z,12.45
2023-03-18T08:44:46.447Z,12.44
2023-03-18T08:47:13.546Z,12.25
2023-03-18T08:49:40.524Z,12.28
2023-03-18T08:52:07.706Z,12.24
2023-03-18T08:54:35.324Z,12.27
2023-03-18T08:57:03.121Z,12.13
2023-03-18T08:59:29.976Z,12.14
2023-03-18T09:01:56.735Z,11.98
2023-03-18T09:04:27.335Z,11.55
2023-03-18T09:06:54.236Z,11.06
2023-03-18T09:09:22.910Z,11.22
2023-03-18T09:11:53.154Z,11.40
2023-03-18T09:14:20.318Z,11.60
2023-03-18T09:16:47.516Z,11.51
2023-03-18T09:19:14.631Z,11.59
2023-03-18T09:21:41.651Z,11.97
2023-03-18T09:24:08.718Z,12.20
2023-03-18T09:26:35.646Z,12.19
2023-03-18T09:29:02.889Z,12.24
2023-03-18T09:31:30.887Z,12.23
2023-03-18T09:33:57.745Z,12.59
2023-03-18T09:36:24.797Z,12.75
2023-03-18T09:38:51.857Z,12.76
2023-03-18T09:41:21.541Z,12.47
2023-03-18T09:44:15.360Z,12.90
2023-03-18T09:47:06.939Z,13.49
2023-03-18T09:49:59.515Z,13.89
2023-03-18T09:52:44.157Z,14.60
2023-03-18T09:55:30.646Z,15.74
2023-03-18T09:58:03.338Z,16.29
2023-03-18T10:00:34.795Z,17.12
2023-03-18T10:03:06.466Z,17.47
2023-03-18T10:05:50.166Z,17.49
2023-03-18T10:08:54.596Z,17.91
2023-03-18T10:11:31.162Z,18.22
2023-03-18T10:14:27.318Z,18.88
2023-03-18T10:17:03.796Z,19.69
2023-03-18T10:19:31.914Z,19.69
2023-03-18T10:22:19.209Z,18.58
2023-03-18T10:24:51.919Z,18.29
2023-03-18T10:27:38.931Z,18.16
2023-03-18T10:30:43.652Z,16.46
2023-03-18T10:33:22.276Z,18.05
2023-03-18T10:36:05.652Z,21.11
2023-03-18T10:38:45.062Z,20.84
2023-03-18T10:41:30.021Z,20.44
2023-03-18T10:43:57.685Z,26.87
2023-03-18T10:46:27.345Z,30.21
2023-03-18T10:49:10.973Z,34.81
2023-03-18T10:51:50.463Z,37.06
2023-03-18T10:54:36.945Z,33.75
2023-03-18T10:57:04.318Z,36.42
2023-03-18T10:59:31.584Z,36.52
2023-03-18T11:02:13.955Z,37.92
2023-03-18T11:04:57.978Z,36.04
2023-03-18T11:07:26.975Z,35.90
2023-03-18T11:09:55.057Z,33.83
2023-03-18T11:12:29.019Z,30.22
2023-03-18T11:14:56.785Z,24.65
2023-03-18T11:17:26.645Z,22.08
2023-03-18T11:20:08.300Z,28.31
2023-03-18T11:22:37.214Z,33.44
2023-03-18T11:25:16.901Z,34.28
2023-03-18T11:27:49.506Z,30.07
2023-03-18T11:30:34.890Z,25.08
2023-03-18T11:33:10.780Z,23.00
2023-03-18T11:35:50.466Z,22.64
2023-03-18T11:38:29.278Z,22.38
2023-03-18T11:41:26.673Z,21.62
2023-03-18T11:44:02.470Z,21.33
2023-03-18T11:46:40.874Z,22.45
2023-03-18T11:49:15.154Z,23.81
2023-03-18T11:52:00.513Z,25.14
2023-03-18T11:54:46.132Z,28.96
2023-03-18T11:57:41.934Z,28.91
2023-03-18T12:00:21.053Z,29.19
2023-03-18T12:03:15.658Z,26.73
2023-03-18T12:06:07.179Z,25.37
2023-03-18T12:08:50.585Z,27.09
2023-03-18T12:11:28.964Z,27.30
2023-03-18T12:14:01.719Z,25.83
2023-03-18T12:16:43.751Z,23.83
2023-03-18T12:19:44.259Z,27.00
2023-03-18T12:22:26.735Z,31.95
2023-03-18T12:25:02.798Z,34.40
2023-03-18T12:27:40.739Z,33.99
2023-03-18T12:30:35.701Z,31.77
2023-03-18T12:33:27.433Z,31.55
2023-03-18T12:36:15.761Z,30.13
2023-03-18T12:39:14.863Z,29.21
2023-03-18T12:42:03.803Z,27.78
2023-03-18T12:44:50.153Z,26.01
2023-03-18T12:47:30.416Z,24.55
2023-03-18T12:50:13.036Z,23.58
2023-03-18T12:52:46.651Z,22.20
2023-03-18T12:55:25.557Z,21.60
2023-03-18T12:57:59.840Z,21.34
2023-03-18T13:00:40.323Z,21.34
2023-03-18T13:03:13.730Z,21.58
2023-03-18T13:05:47.911Z,20.28
2023-03-18T13:08:41.875Z,20.84
2023-03-18T13:11:22.223Z,21.74
2023-03-18T13:13:55.200Z,22.75
2023-03-18T13:16:25.959Z,23.05
2023-03-18T13:18:56.422Z,22.57
2023-03-18T13:21:29.899Z,22.17
2023-03-18T13:24:23.077Z,21.63
2023-03-18T13:27:24.816Z,21.29
2023-03-18T13:30:02.232Z,21.17
2023-03-18T13:32:51.082Z,20.28
2023-03-18T13:35:43.820Z,20.40
2023-03-18T13:38:31.302Z,20.90
2023-03-18T13:41:29.014Z,21.16
2023-03-18T13:43:59.054Z,20.55
2023-03-18T13:46:30.888Z,20.26
2023-03-18T13:49:00.695Z,20.20
2023-03-18T13:51:28.406Z,19.72
2023-03-18T13:54:01.243Z,19.30
2023-03-18T13:56:55.755Z,19.21
2023-03-18T13:59:34.827Z,19.41
2023-03-18T14:02:23.206Z,19.27
2023-03-18T14:04:52.445Z,19.20
2023-03-18T14:07:23.906Z,19.22
2023-03-18T14:10:18.730Z,19.26
2023-03-18T14:12:51.438Z,19.24
2023-03-18T14:15:29.946Z,19.45
2023-03-18T14:17:58.802Z,19.53
2023-03-18T14:20:38.793Z,19.38
2023-03-18T14:23:42.317Z,19.30
2023-03-18T14:26:24.433Z,19.10
2023-03-18T14:29:16.385Z,18.92
2023-03-18T14:31:43.411Z,18.80
2023-03-18T14:34:19.636Z,18.68
2023-03-18T14:37:18.086Z,18.54
2023-03-18T14:39:48.234Z,18.27
2023-03-18T14:42:28.867Z,18.32
2023-03-18T14:45:14.394Z,18.18
2023-03-18T14:47:54.071Z,17.95
2023-03-18T14:50:40.748Z,17.89
2023-03-18T14:53:15.560Z,17.46
2023-03-18T14:55:44.090Z,17.29
2023-03-18T14:58:19.638Z,17.25
2023-03-18T15:00:51.753Z,17.27
2023-03-18T15:03:27.923Z,16.90
2023-03-18T15:06:00.993Z,16.55
2023-03-18T15:08:48.202Z,16.50
2023-03-18T15:11:16.802Z,16.71
2023-03-18T15:13:45.017Z,17.00
2023-03-18T15:16:18.447Z,17.14
2023-03-18T15:18:45.900Z,17.07
2023-03-18T15:21:23.466Z,17.00
2023-03-18T15:23:53.147Z,16.90
2023-03-18T15:26:24.160Z,16.69
2023-03-18T15:28:59.066Z,16.73
2023-03-18T15:31:38.901Z,16.77
2023-03-18T15:34:20.453Z,16.92
2023-03-18T15:37:01.730Z,17.25
2023-03-18T15:39:30.978Z,17.57
2023-03-18T15:42:00.946Z,17.36
2023-03-18T15:44:36.304Z,17.10
2023-03-18T15:47:16.883Z,16.92
2023-03-18T15:49:54.776Z,16.54
2023-03-18T15:52:43.516Z,16.24
2023-03-18T15:55:30.412Z,15.99
2023-03-18T15:57:58.632Z,15.91
2023-03-18T16:00:25.884Z,16.04
2023-03-18T16:02:52.972Z,16.03
2023-03-18T16:05:26.025Z,16.30
2023-03-18T16:07:54.103Z,16.62
2023-03-18T16:10:23.096Z,16.67
2023-03-18T16:12:58.281Z,16.91
2023-03-18T16:15:26.842Z,17.02
2023-03-18T16:17:55.546Z,16.44
2023-03-18T16:20:24.466Z,16.17
2023-03-18T16:22:52.200Z,15.77
2023-03-18T16:25:19.777Z,15.40
2023-03-18T16:27:49.677Z,15.19
2023-03-18T16:30:26.229Z,15.02
2023-03-18T16:32:54.926Z,14.78
2023-03-18T16:35:24.793Z,14.56
2023-03-18T16:37:53.354Z,14.38
2023-03-18T16:40:26.676Z,14.17
2023-03-18T16:42:54.629Z,13.99
2023-03-18T16:45:30.376Z,13.94
2023-03-18T16:48:02.839Z,13.99
2023-03-18T16:50:34.048Z,13.94
2023-03-18T16:53:01.285Z,13.76
2023-03-18T16:55:29.096Z,13.53
2023-03-18T16:57:59.004Z,13.41
2023-03-18T17:00:34.617Z,13.27
2023-03-18T17:03:02.420Z,13.28
2023-03-18T17:05:29.449Z,12.94
2023-03-18T17:07:56.436Z,12.65
2023-03-18T17:10:26.519Z,12.65
2023-03-18T17:12:57.682Z,12.46
2023-03-18T17:15:29.318Z,12.42
2023-03-18T17:17:58.768Z,12.27
2023-03-18T17:20:30.611Z,12.13
2023-03-18T17:22:57.443Z,11.89
2023-03-18T17:25:27.400Z,11.93
2023-03-18T17:27:57.863Z,11.72
2023-03-18T17:30:37.065Z,11.83
2023-03-18T17:33:05.500Z,11.70
2023-03-18T17:35:33.173Z,11.60
2023-03-18T17:38:00.951Z,11.47
2023-03-18T17:40:30.673Z,11.40
2023-03-18T17:42:57.687Z,11.37
2023-03-18T17:45:32.608Z,11.12
2023-03-18T17:48:22.568Z,11.10
2023-03-18T17:50:51.840Z,11.00
2023-03-18T17:53:25.572Z,11.03
2023-03-18T17:55:53.882Z,11.01
2023-03-18T17:58:23.333Z,10.98
2023-03-18T18:00:50.463Z,10.86
2023-03-18T18:03:26.847Z,10.87
2023-03-18T18:05:57.691Z,10.87
2023-03-18T18:08:25.866Z,10.98
2023-03-18T18:10:58.353Z,10.96
2023-03-18T18:13:25.250Z,10.79
2023-03-18T18:15:52.843Z,10.88
2023-03-18T18:18:25.982Z,11.04
2023-03-18T18:20:58.697Z,11.16
2023-03-18T18:23:31.411Z,11.24
2023-03-18T18:26:09.436Z,11.22
2023-03-18T18:28:46.535Z,11.12
2023-03-18T18:31:14.782Z,11.06
2023-03-18T18:33:44.364Z,11.03
2023-03-18T18:36:13.097Z,11.02
2023-03-18T18:38:43.805Z,10.84
2023-03-18T18:41:10.997Z,11.08
2023-03-18T18:43:38.077Z,11.05
2023-03-18T18:46:13.600Z,10.95
2023-03-18T18:48:41.044Z,10.80
2023-03-18T18:51:16.054Z,10.82
2023-03-18T18:53:43.650Z,10.81
2023-03-18T18:56:20.051Z,11.00
2023-03-18T18:58:47.987Z,10.99
2023-03-18T19:01:15.305Z,10.87
2023-03-18T19:03:43.038Z,10.90
2023-03-18T19:06:31.514Z,10.77
2023-03-18T19:09:00.880Z,10.77
2023-03-18T19:11:28.713Z,10.84
2023-03-18T19:14:20.388Z,10.82
2023-03-18T19:16:48.528Z,10.88
2023-03-18T19:19:21.393Z,10.82
2023-03-18T19:21:49.858Z,10.82
2023-03-18T19:24:36.102Z,10.71
2023-03-18T19:27:07.311Z,10.62
2023-03-18T19:29:34.453Z,10.54
2023-03-18T19:32:01.942Z,10.38
2023-03-18T19:34:32.468Z,10.30
2023-03-18T19:37:03.015Z,10.17
2023-03-18T19:39:30.158Z,10.25
2023-03-18T19:41:59.976Z,10.26
2023-03-18T19:44:27.431Z,10.15
2023-03-18T19:46:56.531Z,9.94
2023-03-18T19:49:35.471Z,10.23
2023-03-18T19:52:16.745Z,10.08
2023-03-18T19:54:45.421Z,10.00
2023-03-18T19:57:18.361Z,9.92
2023-03-18T19:59:48.652Z,9.84
2023-03-18T20:02:21.184Z,9.74
2023-03-18T20:04:50.293Z,9.59
2023-03-18T20:07:19.045Z,9.60
2023-03-18T20:09:46.309Z,9.44
2023-03-18T20:12:37.902Z,9.45
2023-03-18T20:15:08.142Z,9.39
2023-03-18T20:17:46.363Z,9.21
2023-03-18T20:20:16.926Z,9.08
2023-03-18T20:22:48.275Z,9.03
2023-03-18T20:25:28.583Z,9.02
2023-03-18T20:27:57.432Z,9.03
2023-03-18T20:30:27.065Z,9.01
2023-03-18T20:32:54.583Z,8.91
2023-03-18T20:35:22.948Z,9.03
2023-03-18T20:37:49.975Z,9.02
2023-03-18T20:40:24.092Z,9.02
2023-03-18T20:42:52.814Z,9.04
2023-03-18T20:45:21.192Z,8.99
2023-03-18T20:47:48.535Z,9.11
2023-03-18T20:50:21.421Z,9.15
2023-03-18T20:52:48.780Z,9.22
2023-03-18T20:55:25.725Z,9.20
2023-03-18T20:57:53.659Z,9.18
2023-03-18T21:00:29.398Z,9.31
2023-03-18T21:02:58.531Z,9.28
2023-03-18T21:05:26.751Z,9.06
2023-03-18T21:07:53.945Z,9.37
2023-03-18T21:10:26.442Z,9.40
2023-03-18T21:12:54.108Z,9.45
2023-03-18T21:15:27.348Z,9.53
2023-03-18T21:17:55.304Z,9.51
2023-03-18T21:20:27.412Z,9.55
2023-03-18T21:22:56.433Z,9.47
2023-03-18T21:25:29.001Z,9.50
2023-03-18T21:27:56.327Z,9.40
2023-03-18T21:30:24.034Z,9.34
2023-03-18T21:32:51.284Z,9.34
2023-03-18T21:35:21.946Z,9.22
2023-03-18T21:37:49.525Z,9.30
2023-03-18T21:40:22.647Z,9.21
2023-03-18T21:42:51.152Z,9.10
2023-03-18T21:45:21.315Z,8.92
2023-03-18T21:47:48.488Z,8.90
2023-03-18T21:50:26.882Z,8.75
2023-03-18T21:52:54.673Z,8.62
2023-03-18T21:55:22.752Z,8.54
2023-03-18T21:57:49.740Z,8.65
2023-03-18T22:00:20.891Z,8.65
2023-03-18T22:02:48.103Z,8.70
2023-03-18T22:05:21.924Z,8.70
2023-03-18T22:07:50.700Z,8.76
2023-03-18T22:10:23.424Z,8.80
2023-03-18T22:12:50.880Z,8.76
2023-03-18T22:15:23.734Z,8.79
2023-03-18T22:17:51.600Z,8.80
2023-03-18T22:20:18.651Z,9.13
2023-03-18T22:22:45.949Z,9.41
2023-03-18T22:25:36.586Z,9.72
2023-03-18T22:28:03.841Z,9.90
2023-03-18T22:30:33.145Z,10.07
2023-03-18T22:33:02.322Z,10.15
2023-03-18T22:35:30.195Z,10.33
2023-03-18T22:37:57.327Z,10.37
2023-03-18T22:40:29.826Z,10.49
2023-03-18T22:43:00.150Z,10.61
2023-03-18T22:45:34.416Z,10.59
2023-03-18T22:48:04.449Z,10.71
2023-03-18T22:50:33.957Z,10.73
2023-03-18T22:53:03.962Z,10.69
2023-03-18T22:55:36.949Z,10.65
2023-03-18T22:58:03.929Z,10.61
2023-03-18T23:00:30.933Z,10.55
2023-03-18T23:02:58.811Z,10.31
2023-03-18T23:05:29.730Z,10.36
2023-03-18T23:07:57.469Z,10.25
2023-03-18T23:10:25.148Z,10.12
2023-03-18T23:12:52.246Z,9.94
2023-03-18T23:15:21.753Z,9.99
2023-03-18T23:17:49.537Z,9.78
2023-03-18T23:20:18.286Z,9.59
2023-03-18T23:22:46.038Z,9.47
2023-03-18T23:25:16.844Z,9.42
2023-03-18T23:27:44.579Z,9.34
2023-03-18T23:30:13.526Z,9.16
2023-03-18T23:32:41.285Z,9.02
2023-03-18T23:35:09.928Z,8.95
2023-03-18T23:37:36.819Z,8.76
2023-03-18T23:40:05.478Z,8.67
2023-03-18T23:42:32.498Z,8.70
2023-03-18T23:44:59.503Z,8.74
2023-03-18T23:47:26.423Z,8.51
2023-03-18T23:49:53.407Z,8.38
2023-03-18T23:52:20.318Z,8.30
2023-03-18T23:54:47.462Z,8.16
2023-03-18T23:57:15.161Z,8.24
2023-03-18T23:59:42.310Z,8.20
